Time;durP1;ratioP1;P1;durP2;ratioP2;P2;SDS_P1;SDS_P2;PMS_P1;PMS_P2;Temp;Humidity;BMP_temperature;BMP_pressure;BME280_temperature;BME280_humidity;BME280_pressure;Samples;Min_cycle;Max_cycle;Signal;HPM_P1;HPM_P2
2023/04/07 04:32:28;;;;;;;;;6.25;4.50;;;;;10.20;68.45;101345.53;5084746;27;45536;-73
2023/04/07 04:34:53;;;;;;;;;2.00;2.00;;;;;10.24;68.16;101359.69;5096401;27;45357;-71
2023/04/07 04:37:18;;;;;;;;;3.25;1.00;;;;;10.27;68.48;101362.28;5096612;27;45334;-74
2023/04/07 04:39:44;;;;;;;;;3.00;3.00;;;;;10.27;68.25;101364.06;5096442;27;45470;-73
2023/04/07 04:42:09;;;;;;;;;2.00;2.00;;;;;10.16;68.20;101349.22;5077705;27;46154;-73
2023/04/07 04:44:35;;;;;;;;;1.25;1.25;;;;;10.19;68.69;101356.31;5077360;27;46795;-74
2023/04/07 04:47:01;;;;;;;;;5.00;3.75;;;;;10.21;69.05;101367.81;5096061;27;45358;-74
2023/04/07 04:49:26;;;;;;;;;4.75;2.00;;;;;10.16;68.74;101354.56;5096415;27;45323;-73
2023/04/07 04:51:51;;;;;;;;;4.00;2.50;;;;;10.19;68.63;101365.22;5096142;27;48814;-73
2023/04/07 04:54:18;;;;;;;;;1.00;1.00;;;;;10.10;69.08;101352.09;5077374;27;47367;-72
2023/04/07 04:56:43;;;;;;;;;3.00;1.00;;;;;10.12;68.49;101360.09;5095833;27;45326;-73
2023/04/07 04:59:08;;;;;;;;;3.75;1.50;;;;;10.17;68.86;101375.09;5096259;27;45678;-74
2023/04/07 05:01:34;;;;;;;;;3.25;2.50;;;;;10.18;68.95;101373.31;5095106;27;55686;-73
2023/04/07 05:04:00;;;;;;;;;2.50;2.50;;;;;10.15;69.00;101374.25;5096027;27;46098;-74
2023/04/07 05:06:26;;;;;;;;;5.00;3.00;;;;;10.14;68.70;101377.84;5076823;27;45364;-72
2023/04/07 05:08:51;;;;;;;;;2.50;2.00;;;;;10.14;68.90;101380.53;5096182;27;45399;-72
2023/04/07 05:11:17;;;;;;;;;4.00;3.00;;;;;10.15;68.77;101379.59;5096778;27;45618;-73
2023/04/07 05:13:42;;;;;;;;;4.00;4.00;;;;;10.04;68.58;101352.28;5096799;27;45403;-73
2023/04/07 05:16:07;;;;;;;;;3.25;3.25;;;;;10.05;68.57;101353.16;5096478;27;45439;-72
2023/04/07 05:18:33;;;;;;;;;4.25;3.25;;;;;10.23;68.59;101382.06;5093644;27;45392;-72
2023/04/07 05:20:58;;;;;;;;;2.00;2.00;;;;;10.27;68.10;101382.84;5091799;27;45528;-73
2023/04/07 05:23:23;;;;;;;;;2.25;2.25;;;;;10.22;68.42;101380.28;5092368;27;46142;-73
2023/04/07 05:25:49;;;;;;;;;3.00;1.00;;;;;10.22;68.72;101381.16;5093455;27;45411;-73
2023/04/07 05:28:14;;;;;;;;;4.25;2.25;;;;;10.15;68.79;101366.19;5070199;28;45430;-72
2023/04/07 05:30:40;;;;;;;;;2.75;2.75;;;;;10.14;68.85;101380.53;5085943;27;45429;-73
2023/04/07 05:33:05;;;;;;;;;7.00;3.00;;;;;10.13;68.62;101378.78;5073067;28;45401;-71
2023/04/07 05:35:31;;;;;;;;;4.75;4.00;;;;;10.02;68.86;101366.69;5092090;27;51130;-73
2023/04/07 05:37:56;;;;;;;;;4.00;4.00;;;;;10.00;69.40;101364.06;5094532;27;45460;-73
2023/04/07 05:40:21;;;;;;;;;7.75;5.25;;;;;10.05;69.30;101386.19;5095121;27;45316;-72
2023/04/07 05:42:47;;;;;;;;;5.25;3.00;;;;;9.97;69.26;101369.50;5093288;27;46019;-74
2023/04/07 05:45:12;;;;;;;;;4.00;2.00;;;;;10.07;69.15;101389.69;5073543;27;45442;-75
2023/04/07 05:47:37;;;;;;;;;3.25;3.25;;;;;10.01;69.43;101384.56;5073318;28;45638;-72
2023/04/07 05:50:03;;;;;;;;;8.25;6.25;;;;;9.99;69.18;101388.22;5073055;28;45578;-76
2023/04/07 05:52:28;;;;;;;;;2.75;2.75;;;;;9.97;69.50;101384.69;5076379;27;45488;-75
2023/04/07 05:54:54;;;;;;;;;6.00;3.50;;;;;9.96;69.52;101381.13;5092545;27;45408;-76
2023/04/07 05:57:19;;;;;;;;;4.50;4.00;;;;;10.09;69.16;101397.69;5093402;27;45476;-76
2023/04/07 05:59:45;;;;;;;;;8.75;4.00;;;;;10.06;69.31;101400.47;5092236;27;47399;-71
2023/04/07 06:02:10;;;;;;;;;3.75;3.75;;;;;9.99;69.33;101394.44;5093268;27;46230;-75
2023/04/07 06:04:35;;;;;;;;;4.50;4.00;;;;;10.04;68.79;101405.88;5098648;27;45322;-77
2023/04/07 06:07:01;;;;;;;;;6.25;3.25;;;;;9.85;69.38;101377.97;5095234;27;45356;-71
2023/04/07 06:09:27;;;;;;;;;3.00;2.00;;;;;10.05;69.53;101406.75;5094873;27;45474;-75
2023/04/07 06:11:52;;;;;;;;;7.25;7.00;;;;;9.96;69.47;101402.56;5095386;27;46495;-75
2023/04/07 06:14:17;;;;;;;;;4.25;3.25;;;;;10.01;69.58;101399.75;5076352;27;45367;-78
2023/04/07 06:16:43;;;;;;;;;5.00;5.00;;;;;10.11;68.77;101396.72;5076335;27;45290;-73
2023/04/07 06:19:10;;;;;;;;;5.00;5.00;;;;;10.22;68.82;101404.41;5076358;27;46028;-77
2023/04/07 06:21:35;;;;;;;;;11.25;4.25;;;;;10.30;68.38;101415.75;5073496;28;47406;-79
2023/04/07 06:24:00;;;;;;;;;3.75;3.00;;;;;10.14;68.31;101379.66;5073548;27;45485;-80
2023/04/07 06:26:26;;;;;;;;;8.00;8.00;;;;;10.19;68.08;101386.66;5095397;27;45580;-78
2023/04/07 06:28:52;;;;;;;;;8.00;8.00;;;;;10.43;67.64;101429.63;5094792;27;45589;-79
2023/04/07 06:31:17;;;;;;;;;11.00;8.75;;;;;10.35;67.49;101407.56;5083757;27;46283;-77
2023/04/07 06:33:44;;;;;;;;;8.50;7.75;;;;;10.14;67.76;101387.69;5075787;27;45385;-79
2023/04/07 06:36:10;;;;;;;;;8.00;8.00;;;;;10.16;67.72;101393.88;5066464;27;45497;-80
2023/04/07 06:38:35;;;;;;;;;6.75;5.25;;;;;10.47;67.66;101439.28;5073652;28;46487;-79
2023/04/07 06:41:00;;;;;;;;;9.50;6.50;;;;;10.45;67.32;101428.66;5088564;27;46523;-73
2023/04/07 06:43:26;;;;;;;;;9.25;5.75;;;;;10.41;67.41;101408.22;5098292;27;45282;-80
2023/04/07 06:45:51;;;;;;;;;10.00;8.25;;;;;10.56;67.02;101436.28;5097529;27;45883;-79
2023/04/07 06:48:17;;;;;;;;;9.00;8.25;;;;;10.50;67.48;101437.41;5096872;27;45679;-80
2023/04/07 06:50:46;;;;;;;;;7.75;7.25;;;;;10.63;67.28;101451.28;5076766;27;46943;-79
2023/04/07 06:53:11;;;;;;;;;9.00;9.00;;;;;10.38;67.03;101399.44;5090303;27;45330;-80
2023/04/07 06:55:37;;;;;;;;;12.50;10.25;;;;;10.67;65.99;101443.97;5086396;27;45250;-80
2023/04/07 06:58:02;;;;;;;;;11.00;8.75;;;;;10.50;66.65;101426.66;5095278;27;45382;-78
2023/04/07 07:00:29;;;;;;;;;8.75;8.25;;;;;10.54;66.42;101431.00;5095888;27;45308;-81
2023/04/07 07:02:55;;;;;;;;;8.25;8.25;;;;;10.75;66.29;101447.25;5095131;27;45287;-78
2023/04/07 07:05:22;;;;;;;;;10.50;10.00;;;;;10.58;65.55;101426.41;5095642;27;45223;-79
2023/04/07 07:07:47;;;;;;;;;10.00;10.00;;;;;10.74;65.68;101456.22;5101015;27;45342;-80
2023/04/07 07:10:13;;;;;;;;;7.00;4.00;;;;;10.71;65.54;101459.91;5084920;27;48033;-79
2023/04/07 07:12:38;;;;;;;;;9.00;8.50;;;;;10.76;65.38;101462.44;5100412;27;45317;-76
2023/04/07 07:15:04;;;;;;;;;11.75;10.50;;;;;10.78;66.01;101458.78;5080734;27;45508;-78
2023/04/07 07:17:30;;;;;;;;;9.25;9.25;;;;;10.69;65.74;101436.75;5092636;27;45575;-77
2023/04/07 07:19:55;;;;;;;;;11.00;10.25;;;;;10.98;65.25;101468.75;5077051;27;45302;-78
2023/04/07 07:22:20;;;;;;;;;13.25;9.50;;;;;10.90;65.17;101465.47;5075796;27;45366;-78
2023/04/07 07:24:46;;;;;;;;;12.00;10.25;;;;;10.74;65.01;101450.88;5097958;27;45290;-78
2023/04/07 07:27:11;;;;;;;;;10.25;10.00;;;;;10.65;65.11;101430.63;5079028;27;47454;-81
2023/04/07 07:29:36;;;;;;;;;9.50;7.75;;;;;10.96;65.07;101474.22;5097779;27;45946;-80
2023/04/07 07:32:02;;;;;;;;;12.00;9.00;;;;;11.00;64.79;101465.09;5080503;27;45441;-79
2023/04/07 07:34:27;;;;;;;;;15.50;10.00;;;;;11.11;64.38;101480.81;5069114;27;45375;-81
2023/04/07 07:36:52;;;;;;;;;18.50;10.50;;;;;10.81;64.16;101422.88;5078618;27;46078;-79
2023/04/07 07:39:18;;;;;;;;;11.00;10.50;;;;;11.13;64.24;101465.56;5086163;27;47284;-78
2023/04/07 07:41:44;;;;;;;;;12.25;8.50;;;;;11.28;63.99;101494.50;5104505;27;45236;-80
2023/04/07 07:44:09;;;;;;;;;13.00;10.00;;;;;11.04;63.45;101446.22;5085160;27;45245;-78
2023/04/07 07:46:34;;;;;;;;;10.25;10.25;;;;;11.24;63.75;101482.13;5080555;27;45595;-79
2023/04/07 07:49:00;;;;;;;;;13.00;13.00;;;;;11.11;63.74;101467.41;5078662;27;48503;-79
2023/04/07 07:51:26;;;;;;;;;10.00;10.00;;;;;11.05;63.87;101450.66;5096824;27;45232;-79
2023/04/07 07:53:52;;;;;;;;;12.50;11.25;;;;;11.30;63.69;101494.47;5071353;27;45290;-78
2023/04/07 07:56:17;;;;;;;;;10.50;10.50;;;;;11.30;63.36;101483.72;5096713;27;46128;-77
2023/04/07 07:58:42;;;;;;;;;15.00;10.50;;;;;11.38;63.03;101489.66;5077913;27;47433;-78
2023/04/07 08:01:08;;;;;;;;;10.75;9.00;;;;;11.42;62.70;101488.59;5096104;27;45507;-79
2023/04/07 08:03:33;;;;;;;;;17.50;10.75;;;;;11.36;62.97;101489.72;5097135;27;45948;-76
2023/04/07 08:05:59;;;;;;;;;8.75;8.00;;;;;11.39;62.94;101480.69;5096967;27;45413;-78
2023/04/07 08:08:25;;;;;;;;;12.75;11.50;;;;;11.35;62.73;101481.72;5096726;27;45495;-79
2023/04/07 08:10:50;;;;;;;;;14.25;12.75;;;;;11.38;62.88;101487.88;5078557;27;45454;-79
2023/04/07 08:13:16;;;;;;;;;12.50;11.75;;;;;11.32;62.26;101477.34;5064435;27;45675;-84
2023/04/07 08:15:41;;;;;;;;;15.50;11.50;;;;;11.32;62.16;101465.72;5077015;27;47000;-83
2023/04/07 08:18:07;;;;;;;;;11.75;9.25;;;;;11.18;61.99;101431.34;5074334;28;46883;-83
2023/04/07 08:20:33;;;;;;;;;12.50;12.00;;;;;11.73;61.68;101508.03;5073057;27;47247;-81
2023/04/07 08:23:00;;;;;;;;;6.00;6.00;;;;;11.71;61.66;101495.56;5068047;27;45448;-82
2023/04/07 08:25:27;;;;;;;;;12.25;11.50;;;;;11.69;60.87;101484.00;5077156;27;46557;-83
2023/04/07 08:27:52;;;;;;;;;13.00;10.50;;;;;11.69;61.09;101465.19;5097524;27;45499;-82
2023/04/07 08:30:19;;;;;;;;;11.50;10.50;;;;;11.86;60.93;101503.06;5077650;27;45930;-82
2023/04/07 08:32:45;;;;;;;;;11.50;11.50;;;;;11.72;60.79;101473.16;5052664;28;45407;-81
2023/04/07 08:35:11;;;;;;;;;12.00;11.25;;;;;11.71;60.78;101476.78;5094689;27;45408;-82
2023/04/07 08:37:39;;;;;;;;;12.25;11.75;;;;;11.82;60.78;101487.13;5100680;27;45476;-80
2023/04/07 08:40:06;;;;;;;;;8.25;8.25;;;;;12.04;61.20;101510.41;5082072;27;45553;-82
2023/04/07 08:42:33;;;;;;;;;15.00;13.50;;;;;11.83;60.47;101456.63;5101499;27;45157;-82
2023/04/07 08:45:05;;;;;;;;;15.00;14.00;;;;;12.19;60.38;101511.59;5097687;27;46466;-79
2023/04/07 08:47:34;;;;;;;;;12.25;12.25;;;;;12.20;60.20;101494.53;5096554;27;47359;-81
2023/04/07 08:50:03;;;;;;;;;10.00;8.25;;;;;12.19;59.79;101484.72;5096572;27;45258;-83
2023/04/07 08:52:43;;;;;;;;;9.50;8.50;;;;;12.04;60.08;101447.72;5096677;27;45422;-83
2023/04/07 08:55:09;;;;;;;;;13.00;12.25;;;;;12.08;59.48;101449.31;5089753;27;45480;-81
2023/04/07 08:57:36;;;;;;;;;12.00;11.00;;;;;12.11;59.42;101459.97;5076585;27;47223;-81
2023/04/07 09:00:05;;;;;;;;;14.00;12.00;;;;;12.53;59.62;101516.47;5095775;27;45341;-81
2023/04/07 09:02:36;;;;;;;;;13.25;11.25;;;;;12.36;59.11;101458.00;5078404;27;45316;-80
2023/04/07 09:05:03;;;;;;;;;10.75;9.00;;;;;12.49;58.58;101469.13;5096187;27;45465;-83
2023/04/07 09:07:31;;;;;;;;;11.50;10.75;;;;;12.57;58.49;101468.81;5077845;27;47348;-83
2023/04/07 09:09:57;;;;;;;;;14.50;11.00;;;;;12.84;58.03;101508.84;5096260;27;45354;-82
2023/04/07 09:12:24;;;;;;;;;7.50;7.50;;;;;12.85;57.55;101501.63;5077740;27;45730;-82
2023/04/07 09:14:49;;;;;;;;;4.25;4.25;;;;;12.62;57.82;101467.66;5097593;27;45444;-83
2023/04/07 09:17:15;;;;;;;;;13.50;9.25;;;;;12.97;57.16;101532.53;5078659;27;46905;-83
2023/04/07 09:19:40;;;;;;;;;12.50;11.25;;;;;12.75;57.47;101479.66;5096973;27;45320;-82
2023/04/07 09:22:07;;;;;;;;;14.75;9.25;;;;;12.73;57.13;101468.09;5096701;27;45416;-84
2023/04/07 09:24:32;;;;;;;;;13.75;10.25;;;;;12.79;56.95;101461.56;5096561;27;45524;-83
2023/04/07 09:27:16;;;;;;;;;12.00;8.00;;;;;13.24;56.76;101521.47;5096147;27;46414;-82
2023/04/07 09:29:43;;;;;;;;;12.00;12.00;;;;;13.09;55.80;101486.25;5095899;27;45479;-81
2023/04/07 09:32:09;;;;;;;;;13.75;12.25;;;;;13.24;56.25;101501.75;5073590;28;45536;-81
2023/04/07 09:34:37;;;;;;;;;9.25;9.00;;;;;13.44;56.81;101525.94;5067787;27;46215;-76
2023/04/07 09:37:04;;;;;;;;;9.50;7.50;;;;;13.54;56.00;101516.50;5095048;27;45465;-77
2023/04/07 09:39:30;;;;;;;;;10.00;10.00;;;;;13.34;55.67;101470.78;5083887;27;45268;-85
2023/04/07 09:52:40;;;;;;;;;;;;;;;;;;;;;
2023/04/07 09:55:21;;;;;;;;;6.50;5.75;;;;;13.71;52.48;101432.19;4967757;28;45517;-88
2023/04/07 09:57:51;;;;;;;;;6.25;5.75;;;;;14.33;51.72;101525.34;5025199;28;45363;-88
2023/04/07 10:00:17;;;;;;;;;6.00;6.00;;;;;14.33;50.20;101523.53;5058750;27;47664;-87
2023/04/07 10:02:46;;;;;;;;;7.25;5.00;;;;;14.29;48.61;101491.41;5089425;27;45423;-87
2023/04/07 10:05:19;;;;;;;;;5.00;3.00;;;;;13.85;48.67;101392.00;5088159;27;45364;-86
2023/04/07 10:08:53;;;;;;;;;7.00;4.50;;;;;13.90;48.02;101386.38;5090588;27;45595;-86
2023/04/07 10:11:19;;;;;;;;;4.75;4.75;;;;;14.48;48.13;101489.53;5009168;27;45359;-78
2023/04/07 10:13:45;;;;;;;;;9.00;8.00;;;;;14.53;47.82;101484.81;5097358;27;45358;-79
2023/04/07 10:16:11;;;;;;;;;7.00;7.00;;;;;14.69;48.23;101517.28;5077126;27;45365;-76
2023/04/07 10:18:38;;;;;;;;;6.00;5.00;;;;;14.66;47.16;101510.19;5077754;27;46302;-77
2023/04/07 10:21:06;;;;;;;;;7.75;6.50;;;;;14.54;46.93;101493.78;5077363;27;46195;-79
2023/04/07 10:24:03;;;;;;;;;7.75;6.25;;;;;14.68;47.31;101520.94;5095074;27;45492;-82
2023/04/07 10:26:32;;;;;;;;;5.25;5.00;;;;;14.59;45.46;101518.69;5096046;27;45230;-77
2023/04/07 10:29:10;;;;;;;;;8.00;5.00;;;;;14.48;45.90;101510.25;5095274;27;45355;-77
2023/04/07 10:31:38;;;;;;;;;5.00;5.00;;;;;14.36;46.32;101511.72;5069108;27;47066;-74
2023/04/07 10:34:04;;;;;;;;;5.00;5.00;;;;;14.33;46.58;101503.75;5094199;27;45361;-74
2023/04/07 10:36:30;;;;;;;;;5.25;5.25;;;;;14.39;46.30;101496.25;5094721;27;45334;-73
2023/04/07 10:39:07;;;;;;;;;6.50;5.00;;;;;14.48;45.32;101513.81;5095160;27;45289;-73
2023/04/07 10:41:35;;;;;;;;;5.50;4.00;;;;;14.49;44.92;101512.00;5078157;27;46526;-75
2023/04/07 10:44:01;;;;;;;;;4.50;3.50;;;;;14.31;44.75;101467.88;5098261;27;45398;-75
2023/04/07 10:46:47;;;;;;;;;5.00;5.00;;;;;14.62;44.63;101507.75;5079877;27;45269;-72
2023/04/07 10:49:18;;;;;;;;;4.00;4.00;;;;;14.70;44.50;101502.84;5098554;27;45259;-74
2023/04/07 10:51:43;;;;;;;;;3.50;3.50;;;;;14.71;44.49;101491.09;5097952;27;45248;-73
2023/04/07 10:54:16;;;;;;;;;5.75;5.75;;;;;14.85;44.34;101503.88;5086276;27;45432;-78
2023/04/07 10:57:09;;;;;;;;;6.00;5.00;;;;;14.98;43.71;101505.84;5065669;27;45320;-76
2023/04/07 10:59:37;;;;;;;;;3.00;3.00;;;;;15.14;43.64;101505.94;5080213;27;47067;-77
2023/04/07 11:02:28;;;;;;;;;3.00;3.00;;;;;15.34;43.31;101503.03;5098729;27;45316;-75
2023/04/07 11:04:53;;;;;;;;;4.75;4.75;;;;;15.47;42.61;101495.16;5098260;27;45408;-73
2023/04/07 11:07:42;;;;;;;;;5.00;5.00;;;;;15.62;42.04;101496.16;5079958;27;45545;-72
2023/04/07 11:10:10;;;;;;;;;6.00;4.00;;;;;15.78;42.35;101499.78;5098009;27;45306;-75
2023/04/07 11:12:35;;;;;;;;;4.00;4.00;;;;;15.89;43.01;101497.34;5098070;27;45472;-78
2023/04/07 11:15:16;;;;;;;;;5.00;5.00;;;;;15.87;42.22;101470.41;5097843;27;45400;-76
2023/04/07 11:17:41;;;;;;;;;4.00;4.00;;;;;16.11;41.75;101483.47;5098397;27;45251;-77
2023/04/07 11:20:07;;;;;;;;;4.00;4.00;;;;;16.31;41.07;101504.00;5097544;27;45509;-78
2023/04/07 11:22:34;;;;;;;;;3.75;3.75;;;;;16.53;41.14;101502.66;5097499;27;45348;-79
2023/04/07 11:25:00;;;;;;;;;4.75;4.75;;;;;16.59;39.15;101477.03;5097563;27;45401;-76
2023/04/07 11:27:27;;;;;;;;;6.00;4.00;;;;;16.37;39.09;101457.63;5098541;27;45313;-78
2023/04/07 11:29:53;;;;;;;;;3.75;3.75;;;;;16.53;39.46;101491.81;5098228;27;45380;-77
2023/04/07 11:32:23;;;;;;;;;5.00;4.75;;;;;16.69;40.35;101486.41;5078050;27;45972;-78
2023/04/07 11:34:49;;;;;;;;;4.75;4.75;;;;;16.72;39.68;101474.53;5089706;27;45448;-78
2023/04/07 11:37:23;;;;;;;;;4.75;3.50;;;;;16.52;39.82;101448.59;5079434;27;45411;-76
2023/04/07 11:39:57;;;;;;;;;3.00;3.00;;;;;16.68;38.68;101476.53;5079812;27;45416;-77
2023/04/07 11:42:37;;;;;;;;;2.00;2.00;;;;;16.52;38.58;101486.47;5098414;27;45242;-77
2023/04/07 11:45:03;;;;;;;;;3.00;3.00;;;;;16.51;39.31;101499.16;5097935;27;45258;-78
2023/04/07 11:47:39;;;;;;;;;3.00;3.00;;;;;16.31;38.56;101460.69;5062766;27;45381;-78
2023/04/07 11:50:06;;;;;;;;;3.00;3.00;;;;;16.43;38.30;101457.25;5097242;27;45439;-78
2023/04/07 11:52:46;;;;;;;;;3.00;3.00;;;;;16.76;38.53;101449.84;5096914;27;45964;-78
2023/04/07 11:55:20;;;;;;;;;4.00;4.00;;;;;17.20;37.17;101479.66;5069288;28;45427;-79
2023/04/07 11:57:47;;;;;;;;;3.00;1.75;;;;;17.42;36.94;101492.75;5091723;27;45325;-78
2023/04/07 12:00:13;;;;;;;;;6.00;3.00;;;;;17.69;35.73;101479.34;5088088;27;45451;-77
2023/04/07 12:02:38;;;;;;;;;4.00;2.00;;;;;17.92;34.49;101478.72;5076356;27;46170;-77
2023/04/07 12:05:04;;;;;;;;;2.00;2.00;;;;;17.96;34.30;101460.38;5066535;27;45217;-82
2023/04/07 12:07:30;;;;;;;;;1.75;1.75;;;;;17.95;34.62;101434.25;5096904;27;45201;-79
2023/04/07 12:09:58;;;;;;;;;3.00;3.00;;;;;18.30;34.64;101438.19;5096908;27;45421;-81
2023/04/07 12:12:28;;;;;;;;;1.50;1.50;;;;;18.36;35.30;101451.38;5096996;27;46041;-81
2023/04/07 12:14:55;;;;;;;;;2.00;2.00;;;;;18.11;35.96;101443.13;5098008;27;45252;-83
2023/04/07 12:17:25;;;;;;;;;2.00;2.00;;;;;17.77;36.28;101415.50;5078368;27;45342;-80
2023/04/07 12:19:51;;;;;;;;;3.25;3.25;;;;;17.90;36.15;101455.38;5096349;27;45527;-81
2023/04/07 12:22:17;;;;;;;;;2.50;2.50;;;;;18.25;36.73;101475.63;5077670;27;48258;-83
2023/04/07 12:24:42;;;;;;;;;3.25;3.25;;;;;18.38;36.45;101448.53;5096221;27;45528;-79
2023/04/07 12:27:08;;;;;;;;;2.50;2.50;;;;;18.79;35.65;101456.63;5078442;27;45561;-80
2023/04/07 12:29:35;;;;;;;;;2.75;2.75;;;;;18.93;34.44;101426.66;5097928;27;45279;-82
2023/04/07 12:32:00;;;;;;;;;2.00;2.00;;;;;19.32;34.02;101471.88;5079588;27;47014;-80
2023/04/07 12:34:26;;;;;;;;;2.25;2.25;;;;;19.28;33.88;101435.03;5079266;27;45362;-81
2023/04/07 12:36:51;;;;;;;;;1.25;1.25;;;;;19.48;33.33;101420.91;5097928;27;45720;-81
2023/04/07 12:39:17;;;;;;;;;2.00;2.00;;;;;19.76;32.33;101414.31;5097331;27;45515;-79
2023/04/07 12:41:47;;;;;;;;;1.00;1.00;;;;;19.95;32.84;101471.00;5079809;27;48248;-79
2023/04/07 12:44:13;;;;;;;;;3.25;2.25;;;;;19.66;33.52;101437.72;5080023;27;45445;-79
2023/04/07 12:46:39;;;;;;;;;5.00;3.00;;;;;19.96;33.92;101418.31;5078532;27;45388;-78
2023/04/07 12:49:04;;;;;;;;;4.00;2.75;;;;;20.51;33.29;101457.72;5079052;27;46888;-79
2023/04/07 12:51:33;;;;;;;;;2.00;2.00;;;;;20.79;31.93;101443.72;5076769;27;48362;-82
2023/04/07 12:54:01;;;;;;;;;2.00;2.00;;;;;20.67;32.08;101434.63;5068923;27;45265;-80
2023/04/07 12:56:27;;;;;;;;;2.00;2.00;;;;;20.74;31.89;101435.94;5077596;27;45672;-81
2023/04/07 12:58:53;;;;;;;;;2.00;2.00;;;;;20.75;32.16;101431.34;5095058;27;45518;-78
2023/04/07 13:01:19;;;;;;;;;0.50;0.50;;;;;21.59;30.17;101471.94;5060740;27;46756;-78
2023/04/07 13:03:44;;;;;;;;;2.50;0.50;;;;;22.39;29.24;101423.41;5074428;28;45251;-78
2023/04/07 13:06:10;;;;;;;;;1.50;1.50;;;;;23.77;27.88;101455.06;5075087;27;45347;-76
2023/04/07 13:08:35;;;;;;;;;4.50;1.00;;;;;24.66;27.18;101414.88;5076645;27;45661;-76
2023/04/07 13:11:01;;;;;;;;;2.75;1.50;;;;;25.67;26.10;101419.75;5093671;27;46136;-77
2023/04/07 13:13:27;;;;;;;;;3.75;2.75;;;;;26.55;24.60;101443.78;5072290;27;45547;-81
2023/04/07 13:15:53;;;;;;;;;3.50;2.00;;;;;26.22;24.95;101445.31;5075241;27;45419;-80
2023/04/07 13:18:18;;;;;;;;;2.00;2.00;;;;;25.42;24.92;101429.50;5071514;27;45963;-79
2023/04/07 13:20:44;;;;;;;;;1.00;1.00;;;;;24.62;26.14;101443.59;5084127;27;46558;-82
2023/04/07 13:23:09;;;;;;;;;2.25;1.75;;;;;25.11;25.85;101466.38;5063148;27;45980;-77
2023/04/07 13:25:35;;;;;;;;;2.75;2.75;;;;;25.68;26.18;101412.38;5095682;27;45383;-78
2023/04/07 13:28:00;;;;;;;;;4.50;1.00;;;;;26.76;24.84;101421.47;5095717;27;45600;-79
2023/04/07 13:30:26;;;;;;;;;2.00;1.00;;;;;27.63;22.63;101420.59;5074187;27;47743;-79
2023/04/07 13:32:52;;;;;;;;;2.00;2.00;;;;;28.42;22.64;101403.63;5066609;27;45371;-80
2023/04/07 13:35:17;;;;;;;;;1.00;1.00;;;;;29.62;21.48;101432.25;5095826;27;45449;-77
2023/04/07 13:37:43;;;;;;;;;1.00;1.00;;;;;30.34;20.54;101418.28;5095618;27;45433;-77
2023/04/07 13:40:11;;;;;;;;;1.50;1.50;;;;;30.11;19.57;101403.56;5095383;27;45460;-78
2023/04/07 13:42:37;;;;;;;;;1.00;1.00;;;;;29.43;20.17;101418.00;5095925;27;45326;-78
2023/04/07 13:45:03;;;;;;;;;1.00;1.00;;;;;28.27;22.22;101410.84;5079485;27;45458;-78
2023/04/07 13:47:32;;;;;;;;;2.00;2.00;;;;;27.47;22.69;101458.03;5098706;27;45303;-79
2023/04/07 13:49:58;;;;;;;;;2.25;2.25;;;;;26.50;23.71;101448.91;5079354;27;46761;-78
2023/04/07 13:52:23;;;;;;;;;1.25;1.25;;;;;25.41;24.13;101416.78;5099596;27;45368;-78
2023/04/07 13:54:50;;;;;;;;;2.00;0.75;;;;;24.84;25.26;101446.03;5081549;27;45469;-77
2023/04/07 13:57:19;;;;;;;;;1.75;1.75;;;;;24.08;26.08;101449.53;5069374;27;45288;-75
2023/04/07 13:59:48;;;;;;;;;1.00;1.00;;;;;23.75;27.21;101445.25;5096876;27;46496;-77
2023/04/07 14:02:13;;;;;;;;;2.50;2.50;;;;;23.65;27.00;101455.28;5096217;27;45341;-76
2023/04/07 14:04:38;;;;;;;;;1.75;1.75;;;;;23.77;27.43;101435.91;5095970;27;45317;-81
2023/04/07 14:07:04;;;;;;;;;4.50;3.00;;;;;24.11;27.91;101430.06;5076923;27;46087;-80
2023/04/07 14:09:29;;;;;;;;;2.75;2.75;;;;;24.82;26.40;101425.25;5077106;27;47500;-80
2023/04/07 14:11:56;;;;;;;;;1.75;1.75;;;;;25.10;25.62;101409.78;5076946;27;45340;-78
2023/04/07 14:14:23;;;;;;;;;2.00;2.00;;;;;25.45;26.11;101428.31;5077233;27;45310;-80
2023/04/07 14:16:51;;;;;;;;;4.75;3.75;;;;;25.59;26.05;101436.13;5097187;27;45256;-76
2023/04/07 14:19:19;;;;;;;;;2.25;2.25;;;;;25.15;25.29;101419.31;5080748;27;46427;-76
2023/04/07 14:21:45;;;;;;;;;1.75;1.75;;;;;24.58;25.47;101433.94;5098820;27;46073;-76
2023/04/07 14:24:10;;;;;;;;;1.00;1.00;;;;;23.95;26.98;101436.09;5098543;27;45325;-73
2023/04/07 14:26:35;;;;;;;;;3.00;2.25;;;;;23.38;26.96;101437.56;5098930;27;45504;-75
2023/04/07 14:29:01;;;;;;;;;2.00;2.00;;;;;22.74;27.46;101427.75;5098422;27;45381;-75
2023/04/07 14:31:26;;;;;;;;;1.00;1.00;;;;;22.14;28.18;101424.63;5098143;27;45459;-77
2023/04/07 14:33:51;;;;;;;;;0.50;0.50;;;;;21.78;28.26;101446.72;5098205;27;45309;-76
2023/04/07 14:36:17;;;;;;;;;1.00;1.00;;;;;21.43;28.90;101442.31;5098318;27;45306;-77
2023/04/07 14:38:42;;;;;;;;;2.25;1.00;;;;;21.18;29.71;101444.38;5098055;27;45826;-77
2023/04/07 14:41:09;;;;;;;;;0.75;0.75;;;;;21.40;31.29;101433.47;5080090;27;45771;-81
2023/04/07 14:43:35;;;;;;;;;1.50;1.50;;;;;21.99;28.52;101397.72;5080068;27;45537;-81
2023/04/07 14:46:00;;;;;;;;;2.50;1.75;;;;;23.08;26.78;101421.09;5079649;27;45948;-80
2023/04/07 14:48:26;;;;;;;;;2.75;1.00;;;;;23.93;27.30;101401.63;5076338;28;48427;-81
2023/04/07 14:50:52;;;;;;;;;1.75;1.75;;;;;24.81;25.09;101379.63;5074882;27;45334;-81
2023/04/07 14:53:17;;;;;;;;;1.00;1.00;;;;;25.52;25.17;101397.34;5076916;28;45493;-79
2023/04/07 14:55:43;;;;;;;;;1.00;1.00;;;;;26.30;25.62;101403.31;5095012;27;45334;-79
2023/04/07 14:58:08;;;;;;;;;1.00;1.00;;;;;26.69;22.92;101420.38;5098438;27;45937;-80
2023/04/07 15:00:34;;;;;;;;;3.00;1.00;;;;;26.44;23.19;101371.69;5076462;28;46088;-80
2023/04/07 15:02:59;;;;;;;;;0.75;0.75;;;;;26.22;22.79;101412.31;5073045;27;45387;-78
2023/04/07 15:05:27;;;;;;;;;1.25;0.00;;;;;25.74;24.07;101420.88;5098901;27;45444;-81
2023/04/07 15:07:53;;;;;;;;;2.75;0.75;;;;;25.13;23.65;101382.03;5097788;27;45444;-78
2023/04/07 15:10:19;;;;;;;;;2.00;1.00;;;;;24.99;24.19;101424.53;5098105;27;45277;-79
2023/04/07 15:12:49;;;;;;;;;4.25;2.50;;;;;24.90;26.01;101436.38;5079508;27;45284;-79
2023/04/07 15:15:15;;;;;;;;;0.75;0.75;;;;;25.16;25.65;101403.72;5078758;27;45803;-80
2023/04/07 15:17:41;;;;;;;;;2.00;2.00;;;;;25.75;24.52;101410.75;5076177;28;46409;-80
2023/04/07 15:20:07;;;;;;;;;3.75;2.00;;;;;26.18;24.10;101408.16;5050706;28;45318;-81
2023/04/07 15:22:33;;;;;;;;;3.75;1.75;;;;;25.95;23.43;101399.47;5095944;27;45505;-79
2023/04/07 15:24:58;;;;;;;;;2.00;2.00;;;;;25.87;24.60;101446.09;5097702;27;45421;-77
2023/04/07 15:27:23;;;;;;;;;3.00;3.00;;;;;24.95;25.90;101387.44;5097037;27;45252;-78
2023/04/07 15:29:50;;;;;;;;;2.50;2.50;;;;;24.38;27.60;101410.25;5097483;27;45315;-79
2023/04/07 15:32:15;;;;;;;;;4.25;2.00;;;;;23.62;28.33;101389.88;5075812;28;45598;-78
2023/04/07 15:34:41;;;;;;;;;5.25;5.25;;;;;23.36;29.25;101455.13;5077178;27;45392;-79
2023/04/07 15:37:07;;;;;;;;;8.50;8.00;;;;;22.78;29.20;101435.59;5077085;27;48076;-77
2023/04/07 15:39:32;;;;;;;;;2.50;2.00;;;;;22.27;29.89;101447.19;5079547;27;45402;-76
2023/04/07 15:41:58;;;;;;;;;3.50;3.50;;;;;21.82;30.52;101450.97;5078992;27;45376;-76
2023/04/07 15:44:24;;;;;;;;;2.25;2.25;;;;;21.21;30.58;101423.16;5097584;27;45349;-75
2023/04/07 15:46:49;;;;;;;;;3.75;3.75;;;;;20.74;31.62;101418.72;5078876;27;47775;-78
2023/04/07 15:49:18;;;;;;;;;2.00;2.00;;;;;20.63;32.09;101470.44;5097450;27;45321;-77
2023/04/07 15:51:45;;;;;;;;;3.00;3.00;;;;;20.37;32.02;101470.56;5097746;27;45444;-71
2023/04/07 15:54:10;;;;;;;;;4.00;2.00;;;;;20.07;32.43;101455.63;5096760;27;45584;-75
2023/04/07 15:56:36;;;;;;;;;2.25;2.25;;;;;19.91;32.49;101464.00;5061278;28;47043;-75
2023/04/07 15:59:01;;;;;;;;;2.50;2.50;;;;;19.57;33.74;101430.25;5088488;27;45458;-79
2023/04/07 16:01:27;;;;;;;;;2.00;2.00;;;;;19.48;33.18;101450.81;5097724;27;45486;-81
2023/04/07 16:03:52;;;;;;;;;3.00;3.00;;;;;19.38;34.15;101459.72;5079610;27;46062;-80
2023/04/07 16:06:17;;;;;;;;;5.00;4.25;;;;;19.18;34.60;101436.66;5097668;27;45338;-79